createdAt,value
2019-05-17T00:02:29.521Z,12.63
2019-05-17T00:05:02.050Z,17.92
2019-05-17T00:07:36.955Z,11.43
2019-05-17T00:10:12.334Z,13.13
2019-05-17T00:12:46.907Z,14.40
2019-05-17T00:15:19.364Z,20.73
2019-05-17T00:17:52.321Z,17.30
2019-05-17T00:20:26.629Z,15.05
2019-05-17T00:22:59.406Z,15.28
2019-05-17T00:25:31.906Z,13.13
2019-05-17T00:28:04.458Z,12.80
2019-05-17T00:30:37.587Z,12.65
2019-05-17T00:33:12.653Z,13.35
2019-05-17T00:35:48.326Z,12.40
2019-05-17T00:38:21.298Z,13.48
2019-05-17T00:40:56.340Z,12.97
2019-05-17T00:43:28.298Z,16.10
2019-05-17T00:46:01.246Z,14.47
2019-05-17T00:48:34.052Z,12.47
2019-05-17T00:51:10.235Z,13.32
2019-05-17T00:53:40.903Z,15.28
2019-05-17T00:56:13.877Z,14.28
2019-05-17T01:01:19.575Z,13.70
2019-05-17T01:03:52.185Z,17.45
2019-05-17T01:06:24.545Z,14.63
2019-05-17T01:09:03.690Z,17.60
2019-05-17T01:11:36.593Z,14.93
2019-05-17T01:14:09.399Z,15.65
2019-05-17T01:16:43.412Z,16.87
2019-05-17T01:19:16.366Z,15.08
2019-05-17T01:21:50.297Z,21.17
2019-05-17T01:24:22.638Z,15.83
2019-05-17T01:26:57.272Z,22.20
2019-05-17T01:29:29.593Z,17.62
2019-05-17T01:32:02.049Z,21.05
2019-05-17T01:34:37.779Z,16.90
2019-05-17T01:37:11.577Z,18.82
2019-05-17T01:39:46.698Z,18.37
2019-05-17T01:42:18.452Z,21.58
2019-05-17T01:45:08.502Z,17.87
2019-05-17T01:47:44.327Z,16.82
2019-05-17T01:50:17.865Z,17.05
2019-05-17T01:52:50.289Z,19.45
2019-05-17T01:55:22.646Z,19.90
2019-05-17T01:57:56.429Z,20.40
2019-05-17T02:00:29.294Z,27.13
2019-05-17T02:03:01.586Z,17.42
2019-05-17T02:05:36.913Z,16.85
2019-05-17T02:08:08.534Z,21.45
2019-05-17T02:10:40.834Z,22.70
2019-05-17T02:13:16.281Z,22.15
2019-05-17T02:15:48.489Z,21.50
2019-05-17T02:18:20.748Z,20.30
2019-05-17T02:20:53.283Z,21.50
2019-05-17T02:23:27.072Z,19.37
2019-05-17T02:25:59.691Z,19.35
2019-05-17T02:28:32.281Z,26.02
2019-05-17T02:31:05.351Z,20.92
2019-05-17T02:33:38.281Z,20.05
2019-05-17T02:36:14.196Z,22.22
2019-05-17T02:38:46.319Z,24.02
2019-05-17T02:41:18.684Z,25.62
2019-05-17T02:43:53.419Z,26.85
2019-05-17T02:46:25.460Z,24.18
2019-05-17T02:48:57.734Z,24.15
2019-05-17T02:51:32.384Z,23.00
2019-05-17T02:54:04.592Z,29.45
2019-05-17T02:56:37.287Z,25.23
2019-05-17T02:59:13.149Z,23.67
2019-05-17T03:01:44.569Z,24.56
2019-05-17T03:20:35.286Z,24.47
2019-05-17T03:23:07.650Z,26.97
2019-05-17T03:25:43.771Z,28.52
2019-05-17T03:28:15.324Z,21.10
2019-05-17T03:32:26.365Z,19.40
2019-05-17T03:34:58.307Z,17.90
2019-05-17T03:37:37.170Z,20.53
2019-05-17T03:40:23.625Z,21.77
2019-05-17T03:42:43.037Z,20.32
2019-05-17T03:45:16.452Z,19.73
2019-05-17T03:47:49.029Z,25.70
2019-05-17T03:50:22.726Z,27.25
2019-05-17T03:52:55.428Z,29.97
2019-05-17T03:55:27.820Z,27.80
2019-05-17T03:58:03.087Z,27.55
2019-05-17T04:00:35.540Z,25.20
2019-05-17T04:03:08.281Z,21.12
2019-05-17T04:05:42.953Z,27.48
2019-05-17T04:08:16.509Z,31.58
2019-05-17T04:10:48.999Z,32.86
2019-05-17T04:13:23.517Z,29.27
2019-05-17T04:15:55.435Z,22.87
2019-05-17T04:20:59.284Z,27.30
2019-05-17T04:23:33.916Z,30.37
2019-05-17T04:26:06.872Z,32.58
2019-05-17T04:28:43.791Z,27.62
2019-05-17T04:31:15.386Z,30.78
2019-05-17T04:33:47.762Z,30.08
2019-05-17T04:36:22.541Z,30.80
2019-05-17T04:38:54.662Z,24.35
2019-05-17T04:41:41.507Z,27.55
2019-05-17T04:44:18.293Z,26.60
2019-05-17T04:46:53.371Z,27.07
2019-05-17T04:49:25.022Z,30.82
2019-05-17T04:51:57.658Z,29.67
2019-05-17T04:54:33.256Z,23.95
2019-05-17T04:57:04.475Z,23.10
2019-05-17T04:59:36.875Z,27.22
2019-05-17T05:02:09.327Z,20.84
2019-05-17T05:04:43.489Z,23.77
2019-05-17T05:07:16.064Z,27.48
2019-05-17T05:09:48.519Z,26.12
2019-05-17T05:12:22.820Z,28.20
2019-05-17T05:14:54.977Z,26.42
2019-05-17T05:17:27.354Z,28.27
2019-05-17T05:20:02.499Z,31.77
2019-05-17T05:22:33.807Z,28.42
2019-05-17T05:25:09.458Z,33.90
2019-05-17T05:27:42.690Z,25.02
2019-05-17T05:30:15.672Z,30.90
2019-05-17T05:32:48.277Z,33.85
2019-05-17T05:35:22.482Z,29.02
2019-05-17T05:37:55.278Z,31.25
2019-05-17T05:40:27.568Z,27.93
2019-05-17T05:43:02.358Z,34.75
2019-05-17T05:45:35.369Z,28.47
2019-05-17T05:48:07.758Z,34.88
2019-05-17T05:50:42.858Z,24.12
2019-05-17T05:53:15.890Z,32.14
2019-05-17T05:55:48.305Z,36.42
2019-05-17T05:58:23.595Z,32.94
2019-05-17T06:00:54.633Z,32.60
2019-05-17T06:03:27.282Z,34.45
2019-05-17T06:06:01.577Z,25.27
2019-05-17T06:08:32.923Z,32.17
2019-05-17T06:11:05.294Z,28.35
2019-05-17T06:13:37.673Z,30.52
2019-05-17T06:16:11.974Z,25.65
2019-05-17T06:18:45.978Z,29.60
2019-05-17T06:21:18.323Z,27.65
2019-05-17T06:26:24.296Z,25.50
2019-05-17T06:28:56.757Z,22.00
2019-05-17T06:31:29.303Z,22.32
2019-05-17T06:34:01.971Z,20.17
2019-05-17T06:36:34.865Z,20.35
2019-05-17T06:39:11.698Z,20.25
2019-05-17T06:41:43.778Z,17.92
2019-05-17T06:44:16.278Z,17.70
2019-05-17T06:46:48.595Z,19.60
2019-05-17T06:49:22.447Z,16.34
2019-05-17T06:51:56.406Z,21.55
2019-05-17T06:54:28.333Z,15.30
2019-05-17T07:11:13.379Z,15.32
2019-05-17T07:13:46.387Z,14.20
2019-05-17T07:16:19.688Z,13.98
2019-05-17T07:18:52.351Z,14.65
2019-05-17T07:21:24.661Z,13.58
2019-05-17T07:23:59.332Z,15.63
2019-05-17T07:26:31.563Z,14.20
2019-05-17T07:29:03.874Z,21.00
2019-05-17T07:31:36.285Z,15.18
2019-05-17T07:34:09.217Z,13.22
2019-05-17T07:36:41.623Z,11.15
2019-05-17T07:39:14.283Z,13.40
2019-05-17T07:41:46.804Z,10.42
2019-05-17T07:44:20.525Z,12.03
2019-05-17T07:46:53.455Z,12.75
2019-05-17T07:49:25.877Z,10.17
2019-05-17T07:52:00.589Z,11.93
2019-05-17T07:54:32.418Z,11.35
2019-05-17T07:57:04.815Z,9.50
2019-05-17T07:59:39.601Z,9.83
2019-05-17T08:02:11.409Z,11.08
2019-05-17T08:04:43.857Z,9.83
2019-05-17T08:07:16.754Z,9.98
2019-05-17T08:09:50.676Z,11.60
2019-05-17T08:12:23.291Z,11.57
2019-05-17T08:14:55.770Z,13.13
2019-05-17T08:17:30.360Z,9.03
2019-05-17T08:20:02.510Z,8.37
2019-05-17T08:22:35.294Z,10.20
2019-05-17T08:27:41.751Z,8.50
2019-05-17T08:30:14.470Z,10.17
2019-05-17T08:36:49.881Z,10.55
2019-05-17T08:39:22.570Z,10.30
2019-05-17T08:41:55.047Z,8.78
2019-05-17T08:44:29.796Z,8.13
2019-05-17T08:47:01.605Z,11.48
2019-05-17T08:49:35.304Z,9.75
2019-05-17T08:52:09.768Z,9.13
2019-05-17T08:54:42.920Z,8.68
2019-05-17T08:57:17.303Z,8.93
2019-05-17T08:59:49.867Z,10.03
2019-05-17T09:02:22.748Z,7.22
2019-05-17T09:04:57.153Z,12.13
2019-05-17T09:18:57.303Z,9.55
2019-05-17T09:21:31.292Z,20.52
2019-05-17T09:24:04.295Z,9.40
2019-05-17T09:26:36.623Z,12.00
2019-05-17T09:29:10.796Z,8.45
2019-05-17T09:31:43.508Z,7.65
2019-05-17T09:34:17.526Z,12.25
2019-05-17T09:36:50.098Z,9.45
2019-05-17T09:39:22.451Z,8.33
2019-05-17T09:42:01.051Z,9.38
2019-05-17T09:44:33.421Z,13.03
2019-05-17T09:47:05.909Z,9.83
2019-05-17T09:49:39.445Z,7.33
2019-05-17T09:52:11.962Z,9.53
2019-05-17T09:54:45.435Z,16.25
2019-05-17T09:57:20.286Z,10.05
2019-05-17T09:59:52.487Z,9.36
2019-05-17T10:02:24.926Z,7.10
2019-05-17T10:04:59.657Z,8.08
2019-05-17T10:07:31.430Z,8.25
2019-05-17T10:10:05.884Z,7.47
2019-05-17T10:12:40.341Z,8.50
2019-05-17T10:15:14.688Z,7.80
2019-05-17T10:18:31.568Z,9.33
2019-05-17T10:20:54.295Z,12.75
2019-05-17T10:23:26.719Z,7.47
2019-05-17T10:29:33.441Z,10.43
2019-05-17T10:32:05.371Z,7.50
2019-05-17T10:44:11.733Z,6.40
2019-05-17T10:47:19.557Z,10.78
2019-05-17T11:04:06.549Z,6.87
2019-05-17T11:06:39.458Z,6.75
2019-05-17T11:16:43.051Z,5.80
2019-05-17T11:19:15.707Z,5.72
2019-05-17T11:21:50.821Z,7.17
2019-05-17T11:24:23.763Z,5.54
2019-05-17T11:26:56.305Z,5.12
2019-05-17T11:29:28.666Z,4.83
2019-05-17T11:32:01.481Z,6.78
2019-05-17T11:34:33.789Z,4.85
2019-05-17T11:37:06.320Z,7.42
2019-05-17T11:39:39.286Z,9.25
2019-05-17T11:42:11.706Z,5.10
2019-05-17T11:44:44.284Z,3.87
2019-05-17T11:47:18.523Z,5.20
2019-05-17T11:49:50.780Z,5.90
2019-05-17T11:52:23.582Z,3.28
2019-05-17T11:54:56.354Z,3.80
2019-05-17T11:57:28.813Z,4.67
2019-05-17T12:00:01.415Z,6.53
2019-05-17T12:02:35.723Z,4.95
2019-05-17T12:05:09.316Z,2.92
2019-05-17T12:07:52.289Z,3.83
2019-05-17T12:10:25.018Z,7.65
2019-05-17T12:12:57.699Z,2.30
2019-05-17T12:15:43.847Z,5.12
2019-05-17T12:18:04.686Z,11.43
2019-05-17T12:20:37.287Z,5.30
2019-05-17T12:23:10.031Z,3.58
2019-05-17T12:25:42.399Z,4.30
2019-05-17T12:28:15.377Z,3.85
2019-05-17T12:30:48.898Z,5.22
2019-05-17T12:35:57.330Z,4.37
2019-05-17T12:41:01.524Z,2.35
2019-05-17T12:43:34.027Z,2.40
2019-05-17T12:46:11.550Z,2.40
2019-05-17T12:48:45.143Z,3.15
2019-05-17T12:51:19.325Z,4.54
2019-05-17T12:53:51.865Z,2.58
2019-05-17T12:56:24.329Z,3.83
2019-05-17T12:58:56.999Z,12.15
2019-05-17T13:01:29.705Z,2.45
2019-05-17T13:04:02.383Z,5.87
2019-05-17T13:06:34.798Z,2.60
2019-05-17T13:09:08.287Z,5.60
2019-05-17T13:11:41.000Z,3.10
2019-05-17T13:14:13.621Z,2.35
2019-05-17T13:16:47.600Z,4.83
2019-05-17T13:19:25.145Z,3.17
2019-05-17T13:21:56.825Z,7.75
2019-05-17T13:24:29.392Z,4.87
2019-05-17T13:27:02.043Z,3.95
2019-05-17T13:29:34.751Z,7.58
2019-05-17T13:32:10.412Z,3.50
2019-05-17T13:34:46.294Z,8.50
2019-05-17T13:37:25.680Z,3.30
2019-05-17T13:39:58.694Z,4.90
2019-05-17T13:42:32.878Z,5.03
2019-05-17T13:45:07.481Z,4.15
2019-05-17T13:47:40.725Z,4.78
2019-05-17T13:50:14.007Z,3.05
2019-05-17T13:52:48.517Z,3.55
2019-05-17T13:55:21.036Z,3.37
2019-05-17T13:57:53.724Z,2.22
2019-05-17T14:00:27.139Z,5.87
2019-05-17T14:03:05.654Z,4.60
2019-05-17T14:05:38.356Z,3.55
2019-05-17T14:08:11.428Z,4.70
2019-05-17T14:10:48.363Z,3.55
2019-05-17T14:13:20.677Z,2.77
2019-05-17T14:18:32.738Z,4.30
2019-05-17T14:21:08.883Z,7.23
2019-05-17T14:23:44.499Z,3.02
2019-05-17T14:28:49.810Z,2.50
2019-05-17T14:31:22.333Z,5.22
2019-05-17T14:33:56.117Z,5.48
2019-05-17T14:36:29.055Z,8.33
2019-05-17T14:39:01.861Z,3.83
2019-05-17T14:41:37.766Z,2.70
2019-05-17T15:04:32.259Z,2.40
2019-05-17T15:07:13.967Z,1.98
2019-05-17T15:09:45.373Z,1.42
2019-05-17T15:12:27.994Z,3.05
2019-05-17T15:14:53.430Z,3.72
2019-05-17T15:17:26.294Z,1.65
2019-05-17T15:19:59.412Z,8.88
2019-05-17T15:22:32.300Z,2.50
2019-05-17T15:25:05.810Z,3.50
2019-05-17T15:27:40.039Z,1.90
2019-05-17T15:30:13.316Z,1.65
2019-05-17T15:32:45.945Z,6.37
2019-05-17T15:35:18.410Z,3.05
2019-05-17T15:37:51.287Z,7.87
2019-05-17T15:40:23.839Z,3.60
2019-05-17T15:42:56.846Z,3.92
2019-05-17T15:45:29.531Z,6.65
2019-05-17T15:48:02.355Z,3.15
2019-05-17T15:50:35.065Z,4.53
2019-05-17T15:53:07.878Z,4.42
2019-05-17T15:55:40.361Z,5.47
2019-05-17T15:58:13.049Z,5.25
2019-05-17T16:00:45.753Z,3.67
2019-05-17T16:03:18.415Z,3.17
2019-05-17T16:05:51.266Z,8.18
2019-05-17T16:08:23.941Z,3.70
2019-05-17T16:10:56.429Z,3.12
2019-05-17T16:13:28.843Z,2.50
2019-05-17T16:16:01.531Z,3.40
2019-05-17T16:18:34.390Z,2.58
2019-05-17T16:21:07.483Z,2.50
2019-05-17T16:23:41.364Z,4.58
2019-05-17T16:26:14.395Z,2.75
2019-05-17T16:28:51.307Z,2.08
2019-05-17T16:31:24.313Z,2.12
2019-05-17T16:33:56.942Z,2.90
2019-05-17T16:36:29.841Z,3.95
2019-05-17T16:39:02.610Z,2.87
2019-05-17T16:41:36.891Z,3.87
2019-05-17T16:44:09.608Z,2.12
2019-05-17T16:46:42.294Z,2.22
2019-05-17T16:49:16.292Z,3.02
2019-05-17T16:51:49.323Z,4.08
2019-05-17T16:57:08.849Z,3.08
2019-05-17T16:59:41.356Z,15.80
2019-05-17T17:02:14.309Z,4.40
2019-05-17T17:04:47.309Z,4.60
2019-05-17T17:07:21.370Z,2.30
2019-05-17T17:09:55.545Z,2.96
2019-05-17T17:12:28.305Z,1.62
2019-05-17T17:15:00.913Z,2.80
2019-05-17T17:17:35.807Z,2.20
2019-05-17T17:20:09.462Z,1.80
2019-05-17T17:22:42.876Z,3.77
2019-05-17T17:25:15.804Z,2.55
2019-05-17T17:27:48.875Z,3.33
2019-05-17T17:31:53.088Z,2.30
2019-05-17T17:34:25.668Z,2.50
2019-05-17T17:36:58.394Z,4.70
2019-05-17T17:39:31.342Z,2.50
2019-05-17T17:42:05.355Z,3.58
2019-05-17T17:44:37.817Z,3.75
2019-05-17T17:47:10.767Z,2.80
2019-05-17T17:49:43.926Z,1.98
2019-05-17T17:52:17.063Z,1.98
2019-05-17T17:54:51.516Z,2.20
2019-05-17T17:57:24.561Z,3.98
2019-05-17T17:59:57.876Z,2.30
2019-05-17T18:08:01.398Z,3.00
2019-05-17T18:10:36.407Z,3.22
2019-05-17T18:13:09.336Z,2.80
2019-05-17T18:18:46.311Z,1.67
2019-05-17T18:21:19.307Z,2.57
2019-05-17T18:23:52.394Z,3.85
2019-05-17T18:26:25.299Z,2.65
2019-05-17T18:28:58.407Z,4.73
2019-05-17T18:31:31.721Z,2.97
2019-05-17T18:34:06.317Z,7.97
2019-05-17T18:41:54.887Z,5.10
2019-05-17T18:47:00.700Z,4.87
2019-05-17T18:49:33.595Z,4.03
2019-05-17T18:52:06.410Z,4.65
2019-05-17T18:54:39.358Z,3.60
2019-05-17T18:57:20.690Z,3.95
2019-05-17T19:02:29.315Z,3.72
2019-05-17T19:05:03.773Z,4.67
2019-05-17T19:07:37.129Z,7.03
2019-05-17T19:10:12.613Z,4.57
2019-05-17T19:12:47.321Z,4.80
2019-05-17T19:15:20.695Z,6.87
2019-05-17T19:17:55.673Z,4.62
2019-05-17T19:20:28.437Z,8.60
2019-05-17T19:23:01.358Z,4.72
2019-05-17T19:25:34.298Z,4.58
2019-05-17T19:28:09.332Z,6.83
2019-05-17T19:30:43.999Z,7.67
2019-05-17T19:35:48.262Z,8.35
2019-05-17T19:38:22.597Z,6.85
2019-05-17T19:40:55.554Z,4.00
2019-05-17T19:43:28.512Z,2.50
2019-05-17T19:46:01.363Z,3.15
2019-05-17T19:51:18.244Z,4.90
2019-05-17T20:04:51.932Z,2.33
2019-05-17T20:07:37.961Z,3.80
2019-05-17T20:10:11.388Z,3.77
2019-05-17T20:12:47.326Z,3.70
2019-05-17T20:15:33.525Z,3.45
2019-05-17T20:17:55.731Z,3.98
2019-05-17T20:20:28.640Z,3.37
2019-05-17T20:23:01.323Z,5.42
2019-05-17T20:25:34.315Z,5.15
2019-05-17T20:28:07.493Z,3.83
2019-05-17T20:30:42.839Z,7.05
2019-05-17T20:33:15.626Z,7.35
2019-05-17T20:35:48.410Z,10.40
2019-05-17T20:38:22.638Z,5.70
2019-05-17T20:40:55.466Z,9.18
2019-05-17T20:43:28.087Z,5.70
2019-05-17T20:46:00.827Z,7.30
2019-05-17T20:48:33.313Z,6.08
2019-05-17T20:51:07.021Z,5.12
2019-05-17T20:53:39.796Z,7.53
2019-05-17T20:56:12.563Z,6.60
2019-05-17T20:58:45.335Z,7.53
2019-05-17T21:01:18.072Z,8.20
2019-05-17T21:03:50.756Z,8.35
2019-05-17T21:06:24.909Z,5.98
2019-05-17T21:08:57.428Z,7.22
2019-05-17T21:11:29.992Z,6.42
2019-05-17T21:14:02.476Z,4.80
2019-05-17T21:16:35.298Z,8.17
2019-05-17T21:19:07.921Z,8.00
2019-05-17T21:21:40.478Z,8.88
2019-05-17T21:24:12.905Z,8.15
2019-05-17T21:26:45.487Z,11.33
2019-05-17T21:29:22.394Z,7.37
2019-05-17T21:31:54.886Z,6.90
2019-05-17T21:36:59.338Z,8.93
2019-05-17T21:39:32.062Z,13.18
2019-05-17T21:42:04.705Z,6.97
2019-05-17T21:44:37.776Z,6.17
2019-05-17T21:47:10.666Z,7.97
2019-05-17T21:49:43.361Z,7.22
2019-05-17T21:52:19.300Z,7.42
2019-05-17T21:54:53.418Z,8.05
2019-05-17T21:57:27.174Z,9.53
2019-05-17T22:02:34.566Z,15.53
2019-05-17T22:05:09.819Z,10.35
2019-05-17T22:07:43.482Z,11.55
2019-05-17T22:12:48.071Z,8.48
2019-05-17T22:17:53.739Z,7.40
2019-05-17T22:20:26.713Z,7.12
2019-05-17T22:22:59.344Z,9.87
2019-05-17T22:25:31.879Z,10.82
2019-05-17T22:28:05.560Z,8.25
2019-05-17T22:30:38.427Z,10.58
2019-05-17T22:33:11.841Z,6.80
2019-05-17T22:35:47.380Z,6.97
2019-05-17T22:38:19.831Z,6.95
2019-05-17T22:40:52.766Z,7.60
2019-05-17T22:43:27.301Z,9.93
2019-05-17T22:46:01.935Z,6.47
2019-05-17T22:48:34.667Z,8.00
2019-05-17T22:51:07.744Z,6.17
2019-05-17T22:53:40.339Z,5.05
2019-05-17T22:56:12.729Z,6.40
2019-05-17T22:58:45.433Z,7.10
2019-05-17T23:01:18.152Z,6.83
2019-05-17T23:03:53.321Z,5.95
2019-05-17T23:06:26.291Z,8.35
2019-05-17T23:08:58.982Z,11.18
2019-05-17T23:11:36.557Z,8.33
2019-05-17T23:14:09.450Z,6.60
2019-05-17T23:16:51.166Z,11.23
2019-05-17T23:19:17.360Z,7.22
2019-05-17T23:21:49.755Z,7.50
2019-05-17T23:24:25.294Z,7.82
2019-05-17T23:26:58.305Z,8.95
2019-05-17T23:29:31.198Z,8.48
2019-05-17T23:34:36.306Z,8.63
2019-05-17T23:37:09.231Z,12.37
2019-05-17T23:39:41.894Z,9.95
2019-05-17T23:42:14.402Z,8.45
2019-05-17T23:44:46.840Z,8.75
2019-05-17T23:49:50.851Z,8.23
2019-05-17T23:55:11.810Z,9.67
2019-05-17T23:57:44.346Z,8.70
